Time;durP1;ratioP1;P1;durP2;ratioP2;P2;SDS_P1;SDS_P2;PMS_P1;PMS_P2;Temp;Humidity;BMP_temperature;BMP_pressure;BME280_temperature;BME280_humidity;BME280_pressure;Samples;Min_cycle;Max_cycle;Signal;HPM_P1;HPM_P2
2022/01/30 00:01:02;;;;;;;26.35;5.75;;;;;;;;;;6189115;23;20323;-85
2022/01/30 00:03:28;;;;;;;17.50;3.85;;;;;;;;;;6161465;23;20048;-85
2022/01/30 00:05:54;;;;;;;29.80;5.82;;;;;;;;;;6188004;23;20023;-85
2022/01/30 00:08:20;;;;;;;20.95;5.53;;;;;;;;;;6186500;23;20443;-85
2022/01/30 00:10:52;;;;;;;19.15;4.75;;;;;;;;;;6187899;23;20025;-87
2022/01/30 00:13:20;;;;;;;22.27;4.53;;;;;;;;;;6161133;23;20064;-85
2022/01/30 00:15:52;;;;;;;21.08;5.68;;;;;;;;;;6161398;23;20021;-85
2022/01/30 00:21:01;;;;;;;18.10;5.63;;;;;;;;;;6188208;23;20017;-85
2022/01/30 00:23:29;;;;;;;25.27;5.07;;;;;;;;;;6187942;23;20017;-85
2022/01/30 00:25:57;;;;;;;27.40;5.40;;;;;;;;;;6186677;23;20490;-85
2022/01/30 00:28:25;;;;;;;24.35;4.93;;;;;;;;;;6185235;23;20017;-86
2022/01/30 00:30:52;;;;;;;22.10;5.53;;;;;;;;;;6161636;23;20021;-85
2022/01/30 00:33:18;;;;;;;20.15;4.18;;;;;;;;;;6187867;23;20075;-85
2022/01/30 00:35:44;;;;;;;18.42;5.15;;;;;;;;;;6187942;23;20021;-85
2022/01/30 00:38:15;;;;;;;17.25;4.53;;;;;;;;;;6187901;23;20039;-85
2022/01/30 00:40:41;;;;;;;21.73;4.63;;;;;;;;;;6161478;23;20013;-86
2022/01/30 00:43:08;;;;;;;14.98;4.50;;;;;;;;;;6186112;23;20107;-85
2022/01/30 00:45:34;;;;;;;20.77;4.28;;;;;;;;;;6188956;23;20381;-85
2022/01/30 00:48:00;;;;;;;26.52;4.60;;;;;;;;;;6162292;23;20033;-86
2022/01/30 00:50:26;;;;;;;13.45;5.05;;;;;;;;;;6187732;23;20021;-85
2022/01/30 00:52:55;;;;;;;19.20;4.53;;;;;;;;;;6187810;23;20023;-86
2022/01/30 00:55:23;;;;;;;11.98;3.20;;;;;;;;;;6188229;23;20072;-85
2022/01/30 00:57:49;;;;;;;19.70;4.38;;;;;;;;;;6161568;23;20052;-85
2022/01/30 01:00:15;;;;;;;25.10;5.25;;;;;;;;;;6186831;23;20060;-85
2022/01/30 01:02:42;;;;;;;16.05;5.75;;;;;;;;;;6187983;23;20017;-85
2022/01/30 01:05:08;;;;;;;18.88;5.60;;;;;;;;;;6161327;23;20053;-85
2022/01/30 01:07:36;;;;;;;17.63;4.43;;;;;;;;;;6186963;23;20351;-85
2022/01/30 01:10:09;;;;;;;20.88;4.63;;;;;;;;;;6159874;23;20028;-85
2022/01/30 01:12:54;;;;;;;14.50;4.55;;;;;;;;;;6187190;23;20053;-85
2022/01/30 01:25:55;;;;;;;27.00;6.72;;;;;;;;;;6187542;23;20017;-85
2022/01/30 01:28:21;;;;;;;18.55;3.88;;;;;;;;;;6186985;23;20068;-86
2022/01/30 01:30:48;;;;;;;7.68;3.45;;;;;;;;;;6188049;23;20013;-86
2022/01/30 01:33:14;;;;;;;19.98;6.20;;;;;;;;;;6160733;23;20024;-86
2022/01/30 01:35:41;;;;;;;17.17;4.05;;;;;;;;;;6161168;23;20017;-86
2022/01/30 01:38:12;;;;;;;19.05;5.30;;;;;;;;;;6187217;23;20016;-85
2022/01/30 01:40:49;;;;;;;56.40;5.68;;;;;;;;;;6160381;23;20459;-85
2022/01/30 01:43:15;;;;;;;26.30;5.20;;;;;;;;;;6160395;23;20020;-85
2022/01/30 01:45:42;;;;;;;26.85;4.60;;;;;;;;;;6186670;23;20395;-86
2022/01/30 01:48:13;;;;;;;12.48;4.53;;;;;;;;;;6185701;23;20059;-86
2022/01/30 01:50:39;;;;;;;16.67;5.18;;;;;;;;;;6160706;23;20570;-85
2022/01/30 01:53:10;;;;;;;44.42;7.40;;;;;;;;;;6160434;23;20017;-85
2022/01/30 01:55:39;;;;;;;23.85;6.47;;;;;;;;;;6187156;23;20040;-85
2022/01/30 01:58:06;;;;;;;20.27;5.50;;;;;;;;;;6188083;23;20024;-86
2022/01/30 02:00:33;;;;;;;30.40;7.15;;;;;;;;;;6187868;23;20045;-86
2022/01/30 02:02:59;;;;;;;28.77;5.78;;;;;;;;;;6187450;23;20021;-86
2022/01/30 02:05:27;;;;;;;34.10;6.65;;;;;;;;;;6160422;23;20017;-86
2022/01/30 02:10:32;;;;;;;19.15;5.18;;;;;;;;;;6160665;23;20451;-86
2022/01/30 02:13:13;;;;;;;20.80;5.65;;;;;;;;;;6188334;23;20028;-86
2022/01/30 02:23:57;;;;;;;20.70;4.65;;;;;;;;;;6162410;23;20044;-85
2022/01/30 02:24:05;;;;;;;17.38;3.28;;;;;;;;;;6162366;23;20316;-86
2022/01/30 02:26:36;;;;;;;27.35;6.43;;;;;;;;;;6163415;23;20327;-85
2022/01/30 02:29:02;;;;;;;23.60;5.45;;;;;;;;;;6188014;23;20021;-85
2022/01/30 02:31:28;;;;;;;15.10;4.63;;;;;;;;;;6162357;23;20027;-86
2022/01/30 02:33:54;;;;;;;33.30;6.72;;;;;;;;;;6163071;23;20017;-85
2022/01/30 02:36:20;;;;;;;32.13;6.57;;;;;;;;;;6187285;23;20017;-86
2022/01/30 02:38:46;;;;;;;35.75;6.60;;;;;;;;;;6188648;23;20037;-86
2022/01/30 02:41:12;;;;;;;12.82;4.55;;;;;;;;;;6162613;23;20092;-86
2022/01/30 02:43:48;;;;;;;18.55;4.88;;;;;;;;;;6162403;23;20040;-86
2022/01/30 02:46:27;;;;;;;31.17;6.13;;;;;;;;;;6188924;23;20017;-86
2022/01/30 02:48:58;;;;;;;22.85;4.97;;;;;;;;;;6188953;23;20450;-86
2022/01/30 02:51:33;;;;;;;30.88;6.93;;;;;;;;;;6188701;23;20012;-86
2022/01/30 02:54:07;;;;;;;34.58;7.00;;;;;;;;;;6188887;23;20063;-86
2022/01/30 02:56:35;;;;;;;35.63;7.55;;;;;;;;;;6188909;23;20391;-86
2022/01/30 02:59:01;;;;;;;30.92;6.82;;;;;;;;;;6162646;23;20016;-86
2022/01/30 03:01:27;;;;;;;27.02;6.05;;;;;;;;;;6163026;23;20419;-86
2022/01/30 03:03:53;;;;;;;41.63;9.15;;;;;;;;;;6163461;23;20374;-86
2022/01/30 03:06:19;;;;;;;31.67;8.02;;;;;;;;;;6187798;23;20021;-86
2022/01/30 03:08:45;;;;;;;29.50;7.85;;;;;;;;;;6161154;23;20021;-86
2022/01/30 03:11:11;;;;;;;38.10;6.78;;;;;;;;;;6162930;23;20032;-86
2022/01/30 03:13:37;;;;;;;24.92;5.88;;;;;;;;;;6162200;23;20021;-86
2022/01/30 03:16:03;;;;;;;28.27;8.13;;;;;;;;;;6162161;23;20095;-86
2022/01/30 03:18:31;;;;;;;36.28;7.18;;;;;;;;;;6188299;23;20108;-86
2022/01/30 03:20:57;;;;;;;19.13;6.05;;;;;;;;;;6162701;23;20384;-86
2022/01/30 03:23:24;;;;;;;38.38;7.50;;;;;;;;;;6162178;23;20044;-86
2022/01/30 03:25:54;;;;;;;35.05;7.80;;;;;;;;;;6163047;23;20363;-86
2022/01/30 03:28:21;;;;;;;14.60;5.05;;;;;;;;;;6161743;23;20039;-86
2022/01/30 03:30:48;;;;;;;31.52;5.82;;;;;;;;;;6161579;23;20466;-85
2022/01/30 03:33:15;;;;;;;24.40;6.50;;;;;;;;;;6162687;23;20017;-86
2022/01/30 03:35:41;;;;;;;19.30;5.88;;;;;;;;;;6163072;23;20021;-86
2022/01/30 03:38:07;;;;;;;28.83;4.70;;;;;;;;;;6162741;23;20033;-86
2022/01/30 03:40:33;;;;;;;20.40;6.15;;;;;;;;;;6161796;23;20028;-85
2022/01/30 03:42:59;;;;;;;26.90;5.32;;;;;;;;;;6162443;23;20056;-86
2022/01/30 03:45:26;;;;;;;21.48;6.28;;;;;;;;;;6162812;23;20049;-85
2022/01/30 03:47:55;;;;;;;24.92;8.48;;;;;;;;;;6187931;23;20477;-85
2022/01/30 03:50:22;;;;;;;32.92;7.85;;;;;;;;;;6187214;23;20335;-86
2022/01/30 03:52:48;;;;;;;28.70;6.35;;;;;;;;;;6161481;23;20021;-86
2022/01/30 03:55:14;;;;;;;29.05;8.60;;;;;;;;;;6163136;23;20017;-86
2022/01/30 03:57:40;;;;;;;33.20;6.40;;;;;;;;;;6187745;23;20147;-85
2022/01/30 04:00:07;;;;;;;20.30;6.32;;;;;;;;;;6161370;23;20025;-85
2022/01/30 04:02:33;;;;;;;30.55;7.85;;;;;;;;;;6188081;23;20021;-85
2022/01/30 04:05:00;;;;;;;24.00;6.93;;;;;;;;;;6188113;23;20075;-85
2022/01/30 04:07:27;;;;;;;42.97;9.10;;;;;;;;;;6161128;23;20056;-86
2022/01/30 04:09:53;;;;;;;15.68;5.13;;;;;;;;;;6160987;23;20097;-85
2022/01/30 04:12:20;;;;;;;23.73;7.18;;;;;;;;;;6161090;23;20099;-85
2022/01/30 04:14:46;;;;;;;33.90;7.25;;;;;;;;;;6161116;23;20050;-85
2022/01/30 04:17:13;;;;;;;39.60;7.82;;;;;;;;;;6187193;23;20053;-85
2022/01/30 04:19:40;;;;;;;20.38;5.10;;;;;;;;;;6161494;23;20025;-85
2022/01/30 04:22:06;;;;;;;30.02;6.22;;;;;;;;;;6161224;23;20028;-85
2022/01/30 04:24:33;;;;;;;20.25;6.00;;;;;;;;;;6187991;23;20346;-85
2022/01/30 04:26:59;;;;;;;24.27;5.97;;;;;;;;;;6187740;23;20442;-85
2022/01/30 04:29:25;;;;;;;36.75;6.70;;;;;;;;;;6186426;23;20020;-85
2022/01/30 04:31:51;;;;;;;24.40;5.95;;;;;;;;;;6161510;23;20036;-85
2022/01/30 04:34:18;;;;;;;34.22;6.05;;;;;;;;;;6161963;23;20028;-85
2022/01/30 04:37:02;;;;;;;32.03;8.25;;;;;;;;;;6161267;23;20442;-85
2022/01/30 04:40:11;;;;;;;23.60;7.20;;;;;;;;;;6162061;23;20407;-85
2022/01/30 04:53:24;;;;;;;40.88;9.18;;;;;;;;;;6160647;23;20028;-85
2022/01/30 04:58:26;;;;;;;36.50;8.93;;;;;;;;;;6161094;23;20028;-86
2022/01/30 05:01:07;;;;;;;47.67;9.70;;;;;;;;;;6187898;23;20450;-86
2022/01/30 05:06:13;;;;;;;42.97;7.78;;;;;;;;;;6160954;23;20073;-86
2022/01/30 05:08:39;;;;;;;21.98;5.95;;;;;;;;;;6187546;23;20021;-85
2022/01/30 05:11:08;;;;;;;35.22;7.40;;;;;;;;;;6188285;23;20021;-86
2022/01/30 05:13:37;;;;;;;19.23;6.10;;;;;;;;;;6187841;23;20087;-85
2022/01/30 05:16:04;;;;;;;30.98;6.22;;;;;;;;;;6187182;23;20017;-86
2022/01/30 05:18:30;;;;;;;29.63;6.78;;;;;;;;;;6186524;23;20027;-85
2022/01/30 05:20:57;;;;;;;34.72;7.45;;;;;;;;;;6185559;23;20523;-85
2022/01/30 05:23:23;;;;;;;46.63;7.93;;;;;;;;;;6187420;23;20023;-85
2022/01/30 05:25:50;;;;;;;36.75;7.90;;;;;;;;;;6160941;23;20396;-85
2022/01/30 05:28:17;;;;;;;30.40;9.02;;;;;;;;;;6187092;23;20328;-86
2022/01/30 05:30:44;;;;;;;32.35;7.93;;;;;;;;;;6161547;23;20039;-85
2022/01/30 05:33:11;;;;;;;32.92;9.27;;;;;;;;;;6187313;23;20060;-85
2022/01/30 05:35:37;;;;;;;38.80;7.22;;;;;;;;;;6187287;23;20029;-86
2022/01/30 05:38:04;;;;;;;28.98;6.70;;;;;;;;;;6186875;23;20088;-85
2022/01/30 05:40:30;;;;;;;40.40;8.43;;;;;;;;;;6187905;23;20017;-86
2022/01/30 05:42:56;;;;;;;18.85;5.63;;;;;;;;;;6185796;23;20463;-85
2022/01/30 05:48:07;;;;;;;38.08;8.55;;;;;;;;;;6187722;23;20504;-86
2022/01/30 05:50:33;;;;;;;34.13;8.52;;;;;;;;;;6187378;23;20048;-85
2022/01/30 05:52:59;;;;;;;27.35;7.05;;;;;;;;;;6160647;23;20477;-85
2022/01/30 05:55:25;;;;;;;30.33;8.20;;;;;;;;;;6186884;23;20036;-86
2022/01/30 05:57:51;;;;;;;30.60;7.93;;;;;;;;;;6189249;23;20021;-86
2022/01/30 06:00:17;;;;;;;28.08;8.50;;;;;;;;;;6164110;23;20071;-86
2022/01/30 06:02:44;;;;;;;41.33;9.63;;;;;;;;;;6189303;23;20013;-86
2022/01/30 06:05:13;;;;;;;28.52;6.50;;;;;;;;;;6163685;23;20020;-88
2022/01/30 06:07:47;;;;;;;21.77;7.00;;;;;;;;;;6163889;23;20537;-88
2022/01/30 06:10:13;;;;;;;28.85;6.78;;;;;;;;;;6190175;23;20448;-89
2022/01/30 06:12:40;;;;;;;31.88;6.93;;;;;;;;;;6164057;23;20064;-87
2022/01/30 06:15:06;;;;;;;35.38;8.27;;;;;;;;;;6191376;23;20092;-88
2022/01/30 06:17:32;;;;;;;33.20;7.35;;;;;;;;;;6163680;23;20017;-88
2022/01/30 06:19:58;;;;;;;20.50;6.80;;;;;;;;;;6164699;23;20040;-89
2022/01/30 06:22:24;;;;;;;23.25;7.60;;;;;;;;;;6189604;23;20391;-88
2022/01/30 06:24:50;;;;;;;33.97;7.10;;;;;;;;;;6189622;23;20316;-88
2022/01/30 06:27:17;;;;;;;35.05;7.72;;;;;;;;;;6162005;23;20099;-89
2022/01/30 06:29:43;;;;;;;29.08;8.60;;;;;;;;;;6187665;23;20566;-88
2022/01/30 06:32:09;;;;;;;28.35;9.50;;;;;;;;;;6189318;23;20027;-88
2022/01/30 06:34:35;;;;;;;28.75;8.93;;;;;;;;;;6164057;23;20017;-88
2022/01/30 06:37:01;;;;;;;36.65;8.20;;;;;;;;;;6162455;23;20355;-88
2022/01/30 06:39:27;;;;;;;45.55;8.25;;;;;;;;;;6162040;23;20040;-87
2022/01/30 06:41:53;;;;;;;33.70;8.55;;;;;;;;;;6162361;23;20390;-87
2022/01/30 06:44:19;;;;;;;49.45;8.63;;;;;;;;;;6187483;23;20049;-88
2022/01/30 06:46:46;;;;;;;23.50;6.88;;;;;;;;;;6188713;23;20027;-89
2022/01/30 06:49:12;;;;;;;55.88;10.50;;;;;;;;;;6189570;23;20096;-88
2022/01/30 06:51:38;;;;;;;25.80;6.35;;;;;;;;;;6162336;23;20051;-88
2022/01/30 06:54:04;;;;;;;23.38;7.60;;;;;;;;;;6188706;23;20021;-87
2022/01/30 06:56:30;;;;;;;21.73;5.53;;;;;;;;;;6163266;23;20043;-88
2022/01/30 06:58:56;;;;;;;29.50;6.25;;;;;;;;;;6187426;23;20021;-88
2022/01/30 07:01:26;;;;;;;35.65;8.40;;;;;;;;;;6187521;23;20376;-87
2022/01/30 07:03:53;;;;;;;30.80;6.90;;;;;;;;;;6187588;23;20024;-87
2022/01/30 07:06:19;;;;;;;33.50;7.38;;;;;;;;;;6162164;23;20028;-87
2022/01/30 07:08:45;;;;;;;46.10;9.80;;;;;;;;;;6188554;23;20017;-87
2022/01/30 07:11:11;;;;;;;26.25;6.80;;;;;;;;;;6162831;23;20032;-89
2022/01/30 07:13:37;;;;;;;24.70;7.15;;;;;;;;;;6189170;23;20056;-90
2022/01/30 07:16:04;;;;;;;25.85;7.60;;;;;;;;;;6189692;23;20082;-88
2022/01/30 07:18:30;;;;;;;22.30;5.13;;;;;;;;;;6188701;23;20067;-87
2022/01/30 07:20:56;;;;;;;26.40;6.93;;;;;;;;;;6189063;23;20144;-88
2022/01/30 07:23:22;;;;;;;30.70;8.98;;;;;;;;;;6162583;23;20092;-87
2022/01/30 07:25:48;;;;;;;39.17;7.38;;;;;;;;;;6187858;23;20017;-87
2022/01/30 07:28:14;;;;;;;25.52;6.35;;;;;;;;;;6162503;23;20021;-87
2022/01/30 07:30:41;;;;;;;30.63;6.70;;;;;;;;;;6188597;23;20307;-86
2022/01/30 07:33:07;;;;;;;23.17;5.45;;;;;;;;;;6161617;23;20111;-87
2022/01/30 07:35:36;;;;;;;20.55;6.22;;;;;;;;;;6162151;23;20048;-86
2022/01/30 07:38:03;;;;;;;33.70;5.30;;;;;;;;;;6188372;23;20036;-87
2022/01/30 07:40:32;;;;;;;35.88;8.85;;;;;;;;;;6187848;23;20019;-87
2022/01/30 07:42:58;;;;;;;31.40;7.55;;;;;;;;;;6188325;23;20087;-87
2022/01/30 07:45:24;;;;;;;34.97;8.10;;;;;;;;;;6161760;23;20043;-88
2022/01/30 07:47:50;;;;;;;22.60;6.57;;;;;;;;;;6188211;23;20052;-87
2022/01/30 07:50:16;;;;;;;24.05;7.63;;;;;;;;;;6162372;23;20104;-88
2022/01/30 07:52:44;;;;;;;30.27;6.53;;;;;;;;;;6161705;23;20028;-90
2022/01/30 07:55:10;;;;;;;25.02;6.13;;;;;;;;;;6162684;23;20053;-88
2022/01/30 07:57:36;;;;;;;28.90;9.75;;;;;;;;;;6188705;23;20025;-88
2022/01/30 08:00:07;;;;;;;25.67;7.00;;;;;;;;;;6161819;23;20351;-87
2022/01/30 08:02:34;;;;;;;32.80;8.38;;;;;;;;;;6188501;23;20017;-88
2022/01/30 08:05:00;;;;;;;21.55;5.20;;;;;;;;;;6188826;23;20009;-88
2022/01/30 08:07:27;;;;;;;23.40;5.82;;;;;;;;;;6161752;23;20051;-89
2022/01/30 08:09:53;;;;;;;42.88;8.57;;;;;;;;;;6160849;23;20049;-88
2022/01/30 08:12:19;;;;;;;28.42;6.43;;;;;;;;;;6162521;23;20028;-88
2022/01/30 08:14:45;;;;;;;28.67;7.00;;;;;;;;;;6161869;23;20350;-88
2022/01/30 08:17:18;;;;;;;31.15;5.80;;;;;;;;;;6162650;23;20079;-88
2022/01/30 08:19:46;;;;;;;22.85;6.15;;;;;;;;;;6161153;23;20096;-87
2022/01/30 08:22:12;;;;;;;18.83;5.40;;;;;;;;;;6160989;23;20014;-88
2022/01/30 08:24:38;;;;;;;24.85;7.63;;;;;;;;;;6161461;23;20025;-87
2022/01/30 08:27:05;;;;;;;26.65;7.53;;;;;;;;;;6161222;23;20064;-86
2022/01/30 08:29:31;;;;;;;13.18;4.57;;;;;;;;;;6161005;23;20017;-88
2022/01/30 08:31:58;;;;;;;46.88;9.40;;;;;;;;;;6187185;23;20021;-89
2022/01/30 08:34:24;;;;;;;30.83;7.95;;;;;;;;;;6187691;23;20351;-88
2022/01/30 08:36:51;;;;;;;42.40;8.20;;;;;;;;;;6187858;23;20155;-88
2022/01/30 08:39:19;;;;;;;30.73;7.95;;;;;;;;;;6160835;23;20148;-88
2022/01/30 08:41:46;;;;;;;28.05;7.85;;;;;;;;;;6187612;23;20092;-88
2022/01/30 08:44:12;;;;;;;23.88;7.32;;;;;;;;;;6187329;23;20075;-88
2022/01/30 08:46:38;;;;;;;32.75;6.65;;;;;;;;;;6187505;23;20017;-88
2022/01/30 08:49:04;;;;;;;33.83;7.10;;;;;;;;;;6160810;23;20419;-86
2022/01/30 08:51:31;;;;;;;22.23;5.93;;;;;;;;;;6162333;23;20343;-87
2022/01/30 08:53:57;;;;;;;34.95;5.65;;;;;;;;;;6160318;23;20027;-87
2022/01/30 08:56:23;;;;;;;27.63;8.20;;;;;;;;;;6162152;23;20024;-88
2022/01/30 08:58:50;;;;;;;33.00;7.28;;;;;;;;;;6187065;23;20031;-87
2022/01/30 09:01:16;;;;;;;40.65;8.23;;;;;;;;;;6187249;23;20053;-87
2022/01/30 09:03:43;;;;;;;42.15;8.90;;;;;;;;;;6161362;23;20443;-87
2022/01/30 09:06:09;;;;;;;27.02;7.25;;;;;;;;;;6186880;23;20466;-87
2022/01/30 09:08:35;;;;;;;37.72;7.85;;;;;;;;;;6160599;23;20080;-87
2022/01/30 09:11:02;;;;;;;28.80;7.15;;;;;;;;;;6161907;23;20025;-87
2022/01/30 09:13:28;;;;;;;26.25;7.35;;;;;;;;;;6160555;23;20020;-87
2022/01/30 09:15:57;;;;;;;28.13;7.30;;;;;;;;;;6161318;23;20017;-88
2022/01/30 09:18:26;;;;;;;34.25;9.02;;;;;;;;;;6161537;23;20017;-89
2022/01/30 09:20:55;;;;;;;32.63;7.07;;;;;;;;;;6161603;23;20028;-88
2022/01/30 09:23:21;;;;;;;34.92;7.95;;;;;;;;;;6160984;23;20019;-87
2022/01/30 09:25:49;;;;;;;35.33;8.68;;;;;;;;;;6162592;23;20060;-87
2022/01/30 09:28:15;;;;;;;39.92;9.65;;;;;;;;;;6161921;23;20013;-86
2022/01/30 09:30:41;;;;;;;21.58;5.78;;;;;;;;;;6187789;23;20021;-87
2022/01/30 09:33:07;;;;;;;41.22;6.22;;;;;;;;;;6163178;23;20021;-86
2022/01/30 09:35:34;;;;;;;20.30;5.93;;;;;;;;;;6164454;23;20139;-87
2022/01/30 09:38:01;;;;;;;22.65;5.93;;;;;;;;;;6162777;23;20485;-87
2022/01/30 09:40:27;;;;;;;19.85;5.60;;;;;;;;;;6162686;23;20025;-86
2022/01/30 09:42:53;;;;;;;25.95;5.72;;;;;;;;;;6188045;23;20017;-86
2022/01/30 09:45:22;;;;;;;23.33;5.18;;;;;;;;;;6162564;23;20013;-86
2022/01/30 09:47:48;;;;;;;30.55;7.90;;;;;;;;;;6189345;23;20027;-86
2022/01/30 09:50:16;;;;;;;28.88;5.53;;;;;;;;;;6187649;23;20023;-86
2022/01/30 09:52:42;;;;;;;23.73;7.03;;;;;;;;;;6162694;23;20024;-86
2022/01/30 09:55:08;;;;;;;23.50;5.35;;;;;;;;;;6162608;23;20021;-86
2022/01/30 09:57:35;;;;;;;25.17;7.15;;;;;;;;;;6162660;23;20028;-86
2022/01/30 10:00:02;;;;;;;23.17;5.95;;;;;;;;;;6162684;23;20342;-86
2022/01/30 10:02:29;;;;;;;26.58;5.95;;;;;;;;;;6162523;23;20021;-86
2022/01/30 10:04:55;;;;;;;35.20;6.85;;;;;;;;;;6162684;23;20016;-86
2022/01/30 10:07:25;;;;;;;24.30;5.60;;;;;;;;;;6162432;23;20386;-86
2022/01/30 10:09:52;;;;;;;33.05;7.18;;;;;;;;;;6187382;23;20439;-86
2022/01/30 10:12:23;;;;;;;36.22;9.77;;;;;;;;;;6187551;23;20021;-86
2022/01/30 10:14:52;;;;;;;39.25;8.20;;;;;;;;;;6162588;23;20021;-86
2022/01/30 10:17:25;;;;;;;45.60;8.20;;;;;;;;;;6162086;23;20021;-86
2022/01/30 10:20:07;;;;;;;34.97;7.30;;;;;;;;;;6162709;23;20328;-86
2022/01/30 10:22:34;;;;;;;32.40;7.53;;;;;;;;;;6187982;23;20021;-87
2022/01/30 10:25:00;;;;;;;46.00;8.35;;;;;;;;;;6162568;23;20024;-87
2022/01/30 10:27:28;;;;;;;27.58;7.82;;;;;;;;;;6189180;23;20170;-86
2022/01/30 10:30:02;;;;;;;40.42;8.05;;;;;;;;;;6162234;23;20103;-86
2022/01/30 10:32:28;;;;;;;25.85;6.18;;;;;;;;;;6188042;23;20031;-86
2022/01/30 10:35:02;;;;;;;19.00;6.20;;;;;;;;;;6162316;23;20049;-86
2022/01/30 10:37:28;;;;;;;43.60;8.95;;;;;;;;;;6162293;23;20438;-86
2022/01/30 10:39:55;;;;;;;37.22;8.02;;;;;;;;;;6188565;23;20048;-86
2022/01/30 10:42:40;;;;;;;33.58;6.63;;;;;;;;;;6163466;23;20013;-86
2022/01/30 10:45:09;;;;;;;23.65;4.90;;;;;;;;;;6162103;23;20024;-86
2022/01/30 10:47:37;;;;;;;19.17;5.63;;;;;;;;;;6189337;23;20013;-86
2022/01/30 10:50:23;;;;;;;24.85;5.38;;;;;;;;;;6188332;23;20020;-86
2022/01/30 10:52:55;;;;;;;24.35;6.75;;;;;;;;;;6188643;23;20044;-86
2022/01/30 10:55:36;;;;;;;32.63;6.05;;;;;;;;;;6161775;23;20017;-86
2022/01/30 10:58:06;;;;;;;27.42;6.82;;;;;;;;;;6189023;23;20017;-85
2022/01/30 11:00:39;;;;;;;26.85;5.50;;;;;;;;;;6192379;23;20144;-90
2022/01/30 11:03:05;;;;;;;17.38;5.18;;;;;;;;;;6195264;23;20032;-86
2022/01/30 11:05:50;;;;;;;24.88;5.70;;;;;;;;;;6192790;23;20031;-90
2022/01/30 11:08:23;;;;;;;23.38;7.10;;;;;;;;;;6192653;23;20031;-93
2022/01/30 11:10:59;;;;;;;23.83;7.15;;;;;;;;;;6140909;23;20076;-88
2022/01/30 11:13:32;;;;;;;20.95;7.05;;;;;;;;;;6190865;23;20069;-87
2022/01/30 11:16:55;;;;;;;36.20;6.65;;;;;;;;;;6192783;23;20017;-88
2022/01/30 11:18:49;;;;;;;20.48;4.95;;;;;;;;;;6193312;23;20017;-88
2022/01/30 11:21:20;;;;;;;22.20;6.35;;;;;;;;;;6167114;23;20309;-89
2022/01/30 11:23:47;;;;;;;28.52;6.85;;;;;;;;;;6168331;23;20323;-88
2022/01/30 11:26:17;;;;;;;24.42;5.85;;;;;;;;;;6167638;23;20013;-91
2022/01/30 11:28:57;;;;;;;27.17;6.25;;;;;;;;;;6193988;23;20032;-86
2022/01/30 11:31:24;;;;;;;26.75;7.38;;;;;;;;;;6169638;23;20018;-89
2022/01/30 11:33:52;;;;;;;21.52;5.70;;;;;;;;;;6168099;23;20069;-87
2022/01/30 11:36:19;;;;;;;28.58;6.43;;;;;;;;;;6194994;23;20027;-92
2022/01/30 11:38:46;;;;;;;34.05;6.82;;;;;;;;;;6167285;23;20447;-90
2022/01/30 11:41:13;;;;;;;27.85;6.38;;;;;;;;;;6194726;23;20443;-92
2022/01/30 11:43:39;;;;;;;30.98;8.52;;;;;;;;;;6166894;23;20013;-91
2022/01/30 11:46:16;;;;;;;33.75;6.43;;;;;;;;;;6166787;23;20020;-89
2022/01/30 11:48:42;;;;;;;42.42;6.68;;;;;;;;;;6168045;23;20017;-90
2022/01/30 11:51:09;;;;;;;32.50;6.60;;;;;;;;;;6167967;23;20350;-89
2022/01/30 11:53:39;;;;;;;36.78;6.95;;;;;;;;;;6167399;23;20028;-90
2022/01/30 11:56:08;;;;;;;32.90;6.95;;;;;;;;;;6192312;23;20021;-90
2022/01/30 11:58:45;;;;;;;28.13;7.20;;;;;;;;;;6192064;23;20079;-92
2022/01/30 12:01:14;;;;;;;16.52;5.97;;;;;;;;;;6165915;23;20021;-92
2022/01/30 12:04:01;;;;;;;42.85;8.32;;;;;;;;;;6193290;23;20020;-90
2022/01/30 12:06:27;;;;;;;25.60;7.68;;;;;;;;;;6165884;23;20017;-88
2022/01/30 12:08:54;;;;;;;49.78;9.35;;;;;;;;;;6165863;23;20402;-89
2022/01/30 12:11:36;;;;;;;36.58;7.88;;;;;;;;;;6167642;23;20028;-89
2022/01/30 12:14:03;;;;;;;38.70;7.30;;;;;;;;;;6166508;23;20150;-90
2022/01/30 12:16:41;;;;;;;32.80;7.97;;;;;;;;;;6165477;23;20017;-89
2022/01/30 12:19:07;;;;;;;30.52;8.32;;;;;;;;;;6166639;23;20020;-91
2022/01/30 12:21:34;;;;;;;31.33;8.15;;;;;;;;;;6167066;23;20017;-89
2022/01/30 12:24:20;;;;;;;23.10;7.25;;;;;;;;;;6192378;23;20017;-91
2022/01/30 12:26:53;;;;;;;23.83;6.03;;;;;;;;;;6165915;23;20455;-89
2022/01/30 12:29:42;;;;;;;22.45;5.80;;;;;;;;;;6190595;23;20024;-90
2022/01/30 12:32:23;;;;;;;19.88;5.93;;;;;;;;;;6101420;23;20015;-92
2022/01/30 12:34:55;;;;;;;27.17;6.15;;;;;;;;;;6079599;23;20101;-92
2022/01/30 12:37:33;;;;;;;35.03;7.55;;;;;;;;;;6109604;23;20047;-88
2022/01/30 12:40:14;;;;;;;22.42;5.18;;;;;;;;;;6105534;23;20023;-89
2022/01/30 12:42:41;;;;;;;17.38;6.03;;;;;;;;;;6100842;23;20456;-89
2022/01/30 12:45:09;;;;;;;29.17;6.63;;;;;;;;;;6079036;23;20022;-87
2022/01/30 12:47:56;;;;;;;29.00;7.10;;;;;;;;;;6101806;23;20058;-87
2022/01/30 12:50:31;;;;;;;31.27;6.38;;;;;;;;;;6101556;23;20022;-89
2022/01/30 12:52:57;;;;;;;14.95;5.47;;;;;;;;;;6102148;23;20026;-91
2022/01/30 12:55:24;;;;;;;11.18;4.22;;;;;;;;;;6077450;23;20022;-89
2022/01/30 12:57:54;;;;;;;23.75;5.95;;;;;;;;;;6102493;23;20026;-88
2022/01/30 13:00:25;;;;;;;27.15;6.75;;;;;;;;;;6078026;23;20018;-92
2022/01/30 13:02:56;;;;;;;25.40;6.78;;;;;;;;;;6077304;23;20449;-92
2022/01/30 13:05:22;;;;;;;24.80;6.45;;;;;;;;;;6084556;23;20046;-91
2022/01/30 13:07:53;;;;;;;28.30;6.75;;;;;;;;;;6075921;23;20050;-85
2022/01/30 13:10:19;;;;;;;23.23;4.63;;;;;;;;;;6190456;23;20075;-85
2022/01/30 13:12:45;;;;;;;25.67;5.05;;;;;;;;;;6190487;23;20025;-86
2022/01/30 13:15:12;;;;;;;15.85;5.78;;;;;;;;;;6167259;23;20021;-86
2022/01/30 13:17:39;;;;;;;19.55;4.57;;;;;;;;;;6195142;23;20104;-86
2022/01/30 13:20:06;;;;;;;30.58;6.50;;;;;;;;;;6189790;23;20013;-86
2022/01/30 13:22:45;;;;;;;25.70;6.43;;;;;;;;;;6167071;23;20032;-84
2022/01/30 13:25:14;;;;;;;16.50;4.38;;;;;;;;;;6166147;23;20343;-86
2022/01/30 13:27:41;;;;;;;25.17;5.20;;;;;;;;;;6164646;23;20072;-85
2022/01/30 13:33:06;;;;;;;29.70;5.78;;;;;;;;;;6195350;23;20021;-86
2022/01/30 13:36:06;;;;;;;26.13;5.70;;;;;;;;;;6128850;23;20029;-86
2022/01/30 13:38:44;;;;;;;17.88;4.43;;;;;;;;;;6170888;23;20021;-86
2022/01/30 13:41:25;;;;;;;17.50;5.53;;;;;;;;;;6144631;23;20091;-86
2022/01/30 13:43:58;;;;;;;34.83;6.15;;;;;;;;;;6141583;23;20095;-85
2022/01/30 13:49:12;;;;;;;28.77;5.30;;;;;;;;;;6167662;23;20044;-85
2022/01/30 13:51:39;;;;;;;29.60;5.90;;;;;;;;;;6167146;23;20036;-88
2022/01/30 13:54:09;;;;;;;30.77;6.32;;;;;;;;;;6143651;23;20021;-91
2022/01/30 13:56:41;;;;;;;24.80;6.28;;;;;;;;;;6194800;23;20088;-90
2022/01/30 13:59:07;;;;;;;25.65;5.65;;;;;;;;;;6142540;23;20020;-91
2022/01/30 14:01:33;;;;;;;31.13;5.40;;;;;;;;;;6143744;23;20021;-91
2022/01/30 14:04:15;;;;;;;26.25;5.57;;;;;;;;;;6141371;23;20020;-91
2022/01/30 14:06:49;;;;;;;29.08;5.90;;;;;;;;;;6193130;23;20502;-90
2022/01/30 14:09:19;;;;;;;;;;;6.90;99.90;;;;;;6140154;23;20044;-91
2022/01/30 14:11:52;;;;;;;12.68;4.18;;;;;;;;;;6142819;23;19916;-91
2022/01/30 14:14:21;;;;;;;23.90;4.90;;;;;;;;;;6142784;23;20025;-94
2022/01/30 14:16:55;;;;;;;20.52;6.30;;;;;;;;;;6144545;23;20427;-91
2022/01/30 14:19:22;;;;;;;21.65;5.20;;;;;;;;;;6168895;23;20024;-91
2022/01/30 14:21:50;;;;;;;16.08;4.97;;;;;;;;;;6170207;23;20072;-92
2022/01/30 14:24:24;;;;;;;42.40;8.50;;;;;;;;;;6170342;23;20074;-94
2022/01/30 14:27:07;;;;;;;17.02;5.05;;;;;;;;;;6196046;23;20017;-93
2022/01/30 14:29:39;;;;;;;26.77;6.05;;;;;;;;;;6167713;23;20028;-93
2022/01/30 14:32:09;;;;;;;25.17;6.22;;;;;;;;;;6170489;23;20032;-91
2022/01/30 14:34:41;;;;;;;18.95;4.88;;;;;;;;;;6146407;23;20077;-93
2022/01/30 14:37:10;;;;;;;27.88;6.38;;;;;;;;;;6146076;23;20020;-90
2022/01/30 14:39:37;;;;;;;14.32;5.80;;;;;;;;;;6145673;23;20021;-90
2022/01/30 14:42:12;;;;;;;33.55;6.00;;;;;;;;;;6144803;23;20043;-91
2022/01/30 14:44:44;;;;;;;27.48;6.78;;;;;;;;;;6144870;23;20021;-93
2022/01/30 14:47:13;;;;;;;34.38;6.32;;;;;;;;;;6145578;23;20013;-92
2022/01/30 14:49:39;;;;;;;36.20;6.82;;;;;;;;;;6145219;23;20021;-92
2022/01/30 14:52:15;;;;;;;28.65;6.22;;;;;;;;;;6144352;23;20017;-93
2022/01/30 14:55:01;;;;;;;26.85;7.97;;;;;;;;;;6143654;23;20021;-90
2022/01/30 14:57:30;;;;;;;19.27;6.45;;;;;;;;;;6144792;23;20056;-91
2022/01/30 14:59:57;;;;;;;31.42;6.30;;;;;;;;;;6143619;23;20056;-93
2022/01/30 15:02:25;;;;;;;27.45;7.47;;;;;;;;;;6144081;23;20071;-92
2022/01/30 15:04:52;;;;;;;25.88;8.07;;;;;;;;;;6168519;23;20048;-89
2022/01/30 15:07:18;;;;;;;27.08;6.97;;;;;;;;;;6169944;23;20028;-91
2022/01/30 15:09:44;;;;;;;33.97;7.05;;;;;;;;;;6144220;23;20351;-89
2022/01/30 15:12:12;;;;;;;26.52;5.55;;;;;;;;;;6195133;23;20044;-92
2022/01/30 15:14:49;;;;;;;26.23;6.32;;;;;;;;;;6145114;23;20071;-90
2022/01/30 15:17:20;;;;;;;27.98;6.82;;;;;;;;;;6144012;23;20020;-89
2022/01/30 15:19:49;;;;;;;33.35;7.35;;;;;;;;;;6168653;23;20050;-89
2022/01/30 15:22:15;;;;;;;33.08;7.38;;;;;;;;;;6168136;23;20024;-90
2022/01/30 15:24:42;;;;;;;29.42;6.53;;;;;;;;;;6168520;23;20107;-90
2022/01/30 15:27:11;;;;;;;22.55;6.30;;;;;;;;;;6168921;23;20352;-89